sensor_id;sensor_type;location;lat;lon;timestamp;pressure;altitude;pressure_sealevel;temperature;humidity
75936;BME280;64614;32.062;34.834;2022-12-22T00:02:26;101004.59;;;22.93;57.59
75936;BME280;64614;32.062;34.834;2022-12-22T00:05:20;101003.50;;;22.94;58.21
75936;BME280;64614;32.062;34.834;2022-12-22T00:08:05;101010.09;;;22.93;57.84
75936;BME280;64614;32.062;34.834;2022-12-22T00:10:50;101008.16;;;22.94;57.98
75936;BME280;64614;32.062;34.834;2022-12-22T00:13:34;101010.09;;;22.93;57.70
75936;BME280;64614;32.062;34.834;2022-12-22T00:16:19;101003.81;;;22.93;57.70
75936;BME280;64614;32.062;34.834;2022-12-22T00:19:11;101003.19;;;22.96;57.68
75936;BME280;64614;32.062;34.834;2022-12-22T00:22:06;100998.31;;;22.93;57.50
75936;BME280;64614;32.062;34.834;2022-12-22T00:24:55;100986.84;;;22.91;57.75
75936;BME280;64614;32.062;34.834;2022-12-22T00:27:39;100993.16;;;22.91;57.41
75936;BME280;64614;32.062;34.834;2022-12-22T00:30:23;100994.47;;;22.94;57.91
75936;BME280;64614;32.062;34.834;2022-12-22T00:33:10;101004.91;;;22.92;57.59
75936;BME280;64614;32.062;34.834;2022-12-22T00:35:55;100996.69;;;22.92;57.50
75936;BME280;64614;32.062;34.834;2022-12-22T00:38:39;100998.94;;;22.90;57.70
75936;BME280;64614;32.062;34.834;2022-12-22T00:41:23;100999.13;;;22.93;58.01
75936;BME280;64614;32.062;34.834;2022-12-22T00:44:07;100999.44;;;22.92;57.59
75936;BME280;64614;32.062;34.834;2022-12-22T00:46:51;100993.16;;;22.91;57.43
75936;BME280;64614;32.062;34.834;2022-12-22T00:49:35;100984.94;;;22.91;58.17
75936;BME280;64614;32.062;34.834;2022-12-22T00:52:21;100986.06;;;22.90;57.75
75936;BME280;64614;32.062;34.834;2022-12-22T00:55:13;100997.50;;;22.92;58.17
75936;BME280;64614;32.062;34.834;2022-12-22T00:57:59;101002.19;;;22.92;57.73
75936;BME280;64614;32.062;34.834;2022-12-22T01:00:44;100991.81;;;22.89;57.96
75936;BME280;64614;32.062;34.834;2022-12-22T01:03:28;100981.69;;;22.89;58.34
75936;BME280;64614;32.062;34.834;2022-12-22T01:06:12;100987.97;;;22.90;57.60
75936;BME280;64614;32.062;34.834;2022-12-22T01:08:56;100985.75;;;22.92;57.34
75936;BME280;64614;32.062;34.834;2022-12-22T01:11:41;100988.50;;;22.92;57.59
75936;BME280;64614;32.062;34.834;2022-12-22T01:14:26;100984.63;;;22.93;57.46
75936;BME280;64614;32.062;34.834;2022-12-22T01:17:09;100984.31;;;22.94;57.94
75936;BME280;64614;32.062;34.834;2022-12-22T01:19:54;100983.00;;;22.92;57.81
75936;BME280;64614;32.062;34.834;2022-12-22T01:22:38;100980.28;;;22.92;57.15
75936;BME280;64614;32.062;34.834;2022-12-22T01:25:22;100970.53;;;22.85;57.20
75936;BME280;64614;32.062;34.834;2022-12-22T01:28:14;100971.16;;;22.82;57.96
75936;BME280;64614;32.062;34.834;2022-12-22T01:31:29;100960.38;;;22.86;58.20
75936;BME280;64614;32.062;34.834;2022-12-22T01:34:14;100954.91;;;22.86;57.73
75936;BME280;64614;32.062;34.834;2022-12-22T01:37:00;100957.34;;;22.88;57.80
75936;BME280;64614;32.062;34.834;2022-12-22T01:39:44;100955.22;;;22.84;58.32
75936;BME280;64614;32.062;34.834;2022-12-22T01:42:30;100968.91;;;22.84;57.79
75936;BME280;64614;32.062;34.834;2022-12-22T01:45:26;100964.56;;;22.83;57.44
75936;BME280;64614;32.062;34.834;2022-12-22T01:48:18;100959.41;;;22.82;57.79
75936;BME280;64614;32.062;34.834;2022-12-22T01:51:07;100951.00;;;22.78;57.37
75936;BME280;64614;32.062;34.834;2022-12-22T01:53:52;100965.59;;;22.74;57.39
75936;BME280;64614;32.062;34.834;2022-12-22T01:56:37;100959.81;;;22.75;57.31
75936;BME280;64614;32.062;34.834;2022-12-22T01:59:22;100961.44;;;22.76;57.62
75936;BME280;64614;32.062;34.834;2022-12-22T02:02:07;100958.06;;;22.79;57.80
75936;BME280;64614;32.062;34.834;2022-12-22T02:04:52;100964.06;;;22.81;57.65
75936;BME280;64614;32.062;34.834;2022-12-22T02:14:41;100967.91;;;22.80;58.28
75936;BME280;64614;32.062;34.834;2022-12-22T02:17:19;100971.75;;;22.79;58.29
75936;BME280;64614;32.062;34.834;2022-12-22T02:20:21;100974.81;;;22.78;58.05
75936;BME280;64614;32.062;34.834;2022-12-22T02:29:02;100964.69;;;22.78;58.05
75936;BME280;64614;32.062;34.834;2022-12-22T02:31:48;100967.91;;;22.80;57.72
75936;BME280;64614;32.062;34.834;2022-12-22T02:34:33;100974.00;;;22.77;58.37
75936;BME280;64614;32.062;34.834;2022-12-22T02:40:26;100976.22;;;22.75;58.54
75936;BME280;64614;32.062;34.834;2022-12-22T02:43:25;100987.97;;;22.76;58.38
75936;BME280;64614;32.062;34.834;2022-12-22T02:49:52;100976.22;;;22.75;58.28
75936;BME280;64614;32.062;34.834;2022-12-22T02:52:39;100976.75;;;22.77;58.54
75936;BME280;64614;32.062;34.834;2022-12-22T02:55:25;100980.59;;;22.76;57.98
75936;BME280;64614;32.062;34.834;2022-12-22T02:58:12;100983.84;;;22.78;58.54
75936;BME280;64614;32.062;34.834;2022-12-22T03:00:56;100985.44;;;22.79;57.92
75936;BME280;64614;32.062;34.834;2022-12-22T03:03:41;100992.06;;;22.78;58.07
75936;BME280;64614;32.062;34.834;2022-12-22T03:06:25;100989.59;;;22.77;58.21
75936;BME280;64614;32.062;34.834;2022-12-22T03:09:09;100978.38;;;22.78;58.39
75936;BME280;64614;32.062;34.834;2022-12-22T03:11:53;100996.50;;;22.74;58.99
75936;BME280;64614;32.062;34.834;2022-12-22T03:14:37;100989.91;;;22.75;58.67
75936;BME280;64614;32.062;34.834;2022-12-22T03:17:21;100995.72;;;22.74;59.13
75936;BME280;64614;32.062;34.834;2022-12-22T03:20:05;100995.72;;;22.74;58.71
75936;BME280;64614;32.062;34.834;2022-12-22T03:22:50;100999.75;;;22.76;58.39
75936;BME280;64614;32.062;34.834;2022-12-22T03:25:34;100992.66;;;22.75;58.61
75936;BME280;64614;32.062;34.834;2022-12-22T03:28:14;100996.72;;;22.78;58.75
75936;BME280;64614;32.062;34.834;2022-12-22T03:30:40;100991.03;;;22.74;58.81
75936;BME280;64614;32.062;34.834;2022-12-22T03:33:05;101000.94;;;22.70;59.31
75936;BME280;64614;32.062;34.834;2022-12-22T03:35:31;100994.09;;;22.73;59.08
75936;BME280;64614;32.062;34.834;2022-12-22T03:37:57;100998.94;;;22.76;59.71
75936;BME280;64614;32.062;34.834;2022-12-22T03:40:31;100993.38;;;22.81;58.67
75936;BME280;64614;32.062;34.834;2022-12-22T03:42:57;100999.84;;;22.85;58.29
75936;BME280;64614;32.062;34.834;2022-12-22T03:45:41;100999.56;;;22.87;58.07
75936;BME280;64614;32.062;34.834;2022-12-22T03:48:25;101009.88;;;22.90;57.75
75936;BME280;64614;32.062;34.834;2022-12-22T03:50:51;101007.47;;;22.88;57.77
75936;BME280;64614;32.062;34.834;2022-12-22T03:53:16;101018.09;;;22.90;57.91
75936;BME280;64614;32.062;34.834;2022-12-22T03:55:42;101023.88;;;22.88;57.78
75936;BME280;64614;32.062;34.834;2022-12-22T03:58:07;101025.00;;;22.87;57.82
75936;BME280;64614;32.062;34.834;2022-12-22T04:00:33;101037.91;;;22.87;57.66
75936;BME280;64614;32.062;34.834;2022-12-22T04:02:59;101030.59;;;22.96;57.45
75936;BME280;64614;32.062;34.834;2022-12-22T04:05:25;101028.06;;;22.99;57.43
75936;BME280;64614;32.062;34.834;2022-12-22T04:07:50;101032.63;;;23.04;57.58
75936;BME280;64614;32.062;34.834;2022-12-22T04:10:18;101040.44;;;22.83;54.10
75936;BME280;64614;32.062;34.834;2022-12-22T04:13:02;101035.88;;;22.78;57.13
75936;BME280;64614;32.062;34.834;2022-12-22T04:15:29;101040.72;;;22.81;56.69
75936;BME280;64614;32.062;34.834;2022-12-22T04:17:56;101036.78;;;22.74;55.65
75936;BME280;64614;32.062;34.834;2022-12-22T04:20:24;101039.06;;;22.66;55.35
75936;BME280;64614;32.062;34.834;2022-12-22T04:22:53;101044.28;;;22.68;56.18
75936;BME280;64614;32.062;34.834;2022-12-22T04:25:20;101043.38;;;22.73;55.42
75936;BME280;64614;32.062;34.834;2022-12-22T04:27:46;101048.00;;;22.72;55.25
75936;BME280;64614;32.062;34.834;2022-12-22T04:30:12;101046.81;;;22.64;55.62
75936;BME280;64614;32.062;34.834;2022-12-22T04:32:38;101042.44;;;22.63;56.03
75936;BME280;64614;32.062;34.834;2022-12-22T04:35:05;101046.09;;;22.59;56.23
75936;BME280;64614;32.062;34.834;2022-12-22T04:37:30;101046.50;;;22.66;56.68
75936;BME280;64614;32.062;34.834;2022-12-22T04:39:56;101049.44;;;22.69;56.40
75936;BME280;64614;32.062;34.834;2022-12-22T04:42:22;101052.50;;;22.68;56.35
75936;BME280;64614;32.062;34.834;2022-12-22T04:44:48;101053.22;;;22.41;54.66
75936;BME280;64614;32.062;34.834;2022-12-22T04:47:14;101038.44;;;22.42;54.88
75936;BME280;64614;32.062;34.834;2022-12-22T04:49:40;101052.78;;;22.33;54.62
75936;BME280;64614;32.062;34.834;2022-12-22T04:52:06;101062.31;;;22.36;54.63
75936;BME280;64614;32.062;34.834;2022-12-22T04:54:31;101066.63;;;22.42;54.93
75936;BME280;64614;32.062;34.834;2022-12-22T04:56:57;101060.53;;;22.45;54.79
75936;BME280;64614;32.062;34.834;2022-12-22T04:59:23;101068.47;;;22.47;54.67
75936;BME280;64614;32.062;34.834;2022-12-22T05:01:48;101072.00;;;22.47;54.48
75936;BME280;64614;32.062;34.834;2022-12-22T05:04:14;101074.75;;;22.47;54.61
75936;BME280;64614;32.062;34.834;2022-12-22T05:06:40;101065.03;;;22.55;54.27
75936;BME280;64614;32.062;34.834;2022-12-22T05:09:06;101078.31;;;22.62;53.58
75936;BME280;64614;32.062;34.834;2022-12-22T05:11:32;101073.06;;;22.65;53.80
75936;BME280;64614;32.062;34.834;2022-12-22T05:13:59;101078.25;;;22.67;53.14
75936;BME280;64614;32.062;34.834;2022-12-22T05:16:24;101072.38;;;22.74;52.54
75936;BME280;64614;32.062;34.834;2022-12-22T05:18:50;101077.44;;;22.80;53.11
75936;BME280;64614;32.062;34.834;2022-12-22T05:21:18;101082.19;;;22.89;52.92
75936;BME280;64614;32.062;34.834;2022-12-22T05:23:44;101080.50;;;22.93;52.36
75936;BME280;64614;32.062;34.834;2022-12-22T05:26:11;101083.13;;;22.98;52.13
75936;BME280;64614;32.062;34.834;2022-12-22T05:28:42;101088.50;;;23.03;51.78
75936;BME280;64614;32.062;34.834;2022-12-22T05:31:14;101085.34;;;23.10;51.29
75936;BME280;64614;32.062;34.834;2022-12-22T05:33:39;101085.06;;;23.11;51.13
75936;BME280;64614;32.062;34.834;2022-12-22T05:36:05;101087.44;;;23.18;52.16
75936;BME280;64614;32.062;34.834;2022-12-22T05:38:31;101080.00;;;23.19;50.39
75936;BME280;64614;32.062;34.834;2022-12-22T05:40:57;101080.91;;;23.28;50.87
75936;BME280;64614;32.062;34.834;2022-12-22T05:43:33;101083.06;;;23.31;50.41
75936;BME280;64614;32.062;34.834;2022-12-22T05:46:07;101094.69;;;23.51;50.96
75936;BME280;64614;32.062;34.834;2022-12-22T05:48:33;101094.69;;;23.51;49.82
75936;BME280;64614;32.062;34.834;2022-12-22T05:50:59;101102.94;;;23.23;50.66
75936;BME280;64614;32.062;34.834;2022-12-22T05:53:25;101099.88;;;23.10;50.42
75936;BME280;64614;32.062;34.834;2022-12-22T06:00:58;101108.63;;;23.40;49.62
75936;BME280;64614;32.062;34.834;2022-12-22T06:03:24;101102.97;;;23.73;48.80
75936;BME280;64614;32.062;34.834;2022-12-22T06:05:51;101105.75;;;23.96;47.93
75936;BME280;64614;32.062;34.834;2022-12-22T06:08:16;101105.25;;;23.94;47.80
75936;BME280;64614;32.062;34.834;2022-12-22T06:10:42;101116.31;;;24.03;48.01
75936;BME280;64614;32.062;34.834;2022-12-22T06:13:08;101111.50;;;27.23;39.72
75936;BME280;64614;32.062;34.834;2022-12-22T06:15:33;101104.25;;;28.45;37.17
75936;BME280;64614;32.062;34.834;2022-12-22T06:17:59;101099.38;;;28.42;36.76
75936;BME280;64614;32.062;34.834;2022-12-22T06:20:25;101108.63;;;28.58;36.72
75936;BME280;64614;32.062;34.834;2022-12-22T06:22:50;101119.19;;;26.61;40.75
75936;BME280;64614;32.062;34.834;2022-12-22T06:25:18;101118.63;;;24.86;45.93
75936;BME280;64614;32.062;34.834;2022-12-22T06:27:46;101125.13;;;24.36;47.10
75936;BME280;64614;32.062;34.834;2022-12-22T06:30:12;101123.94;;;24.06;46.49
75936;BME280;64614;32.062;34.834;2022-12-22T06:32:38;101127.81;;;23.91;47.65
75936;BME280;64614;32.062;34.834;2022-12-22T06:35:05;101125.72;;;23.60;47.55
75936;BME280;64614;32.062;34.834;2022-12-22T06:37:31;101125.00;;;23.68;47.48
75936;BME280;64614;32.062;34.834;2022-12-22T06:39:57;101131.38;;;23.77;48.74
75936;BME280;64614;32.062;34.834;2022-12-22T06:42:22;101139.53;;;23.69;48.08
75936;BME280;64614;32.062;34.834;2022-12-22T06:45:07;101132.63;;;23.71;48.89
75936;BME280;64614;32.062;34.834;2022-12-22T06:47:32;101126.84;;;23.59;49.03
75936;BME280;64614;32.062;34.834;2022-12-22T06:49:58;101139.56;;;23.55;48.60
75936;BME280;64614;32.062;34.834;2022-12-22T06:52:24;101127.56;;;23.51;46.74
75936;BME280;64614;32.062;34.834;2022-12-22T06:55:02;101127.81;;;23.40;46.03
75936;BME280;64614;32.062;34.834;2022-12-22T06:57:29;101115.63;;;23.46;46.14
75936;BME280;64614;32.062;34.834;2022-12-22T06:59:54;101128.09;;;23.53;46.87
75936;BME280;64614;32.062;34.834;2022-12-22T07:02:20;101130.09;;;23.61;46.09
75936;BME280;64614;32.062;34.834;2022-12-22T07:04:46;101127.47;;;23.56;46.38
75936;BME280;64614;32.062;34.834;2022-12-22T07:07:11;101125.94;;;23.50;46.22
75936;BME280;64614;32.062;34.834;2022-12-22T07:09:37;101117.06;;;23.30;45.70
75936;BME280;64614;32.062;34.834;2022-12-22T07:12:03;101128.00;;;23.30;45.87
75936;BME280;64614;32.062;34.834;2022-12-22T07:14:28;101125.34;;;23.25;45.57
75936;BME280;64614;32.062;34.834;2022-12-22T07:16:54;101128.81;;;23.44;47.21
75936;BME280;64614;32.062;34.834;2022-12-22T07:19:20;101121.31;;;23.36;46.56
75936;BME280;64614;32.062;34.834;2022-12-22T07:21:45;101133.28;;;23.40;45.85
75936;BME280;64614;32.062;34.834;2022-12-22T07:24:16;101121.72;;;23.29;44.82
75936;BME280;64614;32.062;34.834;2022-12-22T07:26:48;101121.63;;;23.21;44.77
75936;BME280;64614;32.062;34.834;2022-12-22T07:29:26;101121.72;;;23.29;44.94
75936;BME280;64614;32.062;34.834;2022-12-22T07:32:01;101119.47;;;23.45;45.58
75936;BME280;64614;32.062;34.834;2022-12-22T07:34:26;101107.47;;;23.41;44.54
75936;BME280;64614;32.062;34.834;2022-12-22T07:36:52;101108.63;;;23.40;44.76
75936;BME280;64614;32.062;34.834;2022-12-22T07:39:17;101117.81;;;23.58;45.18
75936;BME280;64614;32.062;34.834;2022-12-22T07:41:43;101105.91;;;23.77;44.95
75936;BME280;64614;32.062;34.834;2022-12-22T07:44:27;101110.69;;;23.71;44.95
75936;BME280;64614;32.062;34.834;2022-12-22T07:46:53;101100.09;;;23.78;45.78
75936;BME280;64614;32.062;34.834;2022-12-22T07:49:19;101087.88;;;23.85;45.83
75936;BME280;64614;32.062;34.834;2022-12-22T07:52:03;101093.78;;;23.92;45.37
75936;BME280;64614;32.062;34.834;2022-12-22T07:54:29;101094.78;;;23.96;45.27
75936;BME280;64614;32.062;34.834;2022-12-22T07:56:55;101087.25;;;24.02;45.98
75936;BME280;64614;32.062;34.834;2022-12-22T07:59:21;101082.81;;;24.15;45.40
75936;BME280;64614;32.062;34.834;2022-12-22T08:01:47;101078.97;;;24.16;44.74
75936;BME280;64614;32.062;34.834;2022-12-22T08:04:13;101082.81;;;23.92;44.19
75936;BME280;64614;32.062;34.834;2022-12-22T08:06:39;101082.47;;;24.07;44.16
75936;BME280;64614;32.062;34.834;2022-12-22T08:09:06;101072.19;;;24.13;44.33
75936;BME280;64614;32.062;34.834;2022-12-22T08:11:32;101080.16;;;23.87;44.29
75936;BME280;64614;32.062;34.834;2022-12-22T08:13:58;101077.59;;;24.04;44.28
75936;BME280;64614;32.062;34.834;2022-12-22T08:16:24;101068.31;;;24.14;44.28
75936;BME280;64614;32.062;34.834;2022-12-22T08:18:50;101077.84;;;24.17;44.03
75936;BME280;64614;32.062;34.834;2022-12-22T08:21:16;101078.78;;;24.12;44.11
75936;BME280;64614;32.062;34.834;2022-12-22T08:23:42;101073.69;;;23.83;43.93
75936;BME280;64614;32.062;34.834;2022-12-22T08:26:13;101073.69;;;23.83;44.14
75936;BME280;64614;32.062;34.834;2022-12-22T08:31:16;101066.78;;;24.08;43.81
75936;BME280;64614;32.062;34.834;2022-12-22T08:33:42;101051.84;;;24.14;44.16
75936;BME280;64614;32.062;34.834;2022-12-22T08:36:09;101044.66;;;23.82;44.38
75936;BME280;64614;32.062;34.834;2022-12-22T08:38:37;101039.53;;;23.89;43.79
75936;BME280;64614;32.062;34.834;2022-12-22T08:41:04;101042.75;;;24.05;44.10
75936;BME280;64614;32.062;34.834;2022-12-22T08:43:31;101041.81;;;24.09;44.47
75936;BME280;64614;32.062;34.834;2022-12-22T08:45:57;101027.94;;;23.92;44.23
75936;BME280;64614;32.062;34.834;2022-12-22T08:48:23;101022.56;;;23.87;44.22
75936;BME280;64614;32.062;34.834;2022-12-22T08:50:49;101023.84;;;24.03;44.13
75936;BME280;64614;32.062;34.834;2022-12-22T08:53:15;101020.16;;;23.85;42.85
75936;BME280;64614;32.062;34.834;2022-12-22T08:55:41;101011.31;;;23.88;43.00
75936;BME280;64614;32.062;34.834;2022-12-22T08:58:06;101011.09;;;23.85;42.18
75936;BME280;64614;32.062;34.834;2022-12-22T09:00:32;100995.13;;;23.87;42.09
75936;BME280;64614;32.062;34.834;2022-12-22T09:02:57;100984.50;;;23.85;42.88
75936;BME280;64614;32.062;34.834;2022-12-22T09:05:23;100985.84;;;23.74;42.19
75936;BME280;64614;32.062;34.834;2022-12-22T09:07:49;100982.06;;;23.84;41.10
75936;BME280;64614;32.062;34.834;2022-12-22T09:10:15;100977.25;;;23.67;41.48
75936;BME280;64614;32.062;34.834;2022-12-22T09:12:40;100967.84;;;23.59;41.32
75936;BME280;64614;32.062;34.834;2022-12-22T09:15:06;100966.63;;;23.65;42.70
75936;BME280;64614;32.062;34.834;2022-12-22T09:17:35;100950.84;;;23.71;41.90
75936;BME280;64614;32.062;34.834;2022-12-22T09:20:03;100942.56;;;23.62;41.43
75936;BME280;64614;32.062;34.834;2022-12-22T09:22:29;100943.16;;;23.59;40.97
75936;BME280;64614;32.062;34.834;2022-12-22T09:24:54;100945.25;;;23.53;40.82
75936;BME280;64614;32.062;34.834;2022-12-22T09:27:20;100941.56;;;23.58;41.20
75936;BME280;64614;32.062;34.834;2022-12-22T09:29:46;100947.06;;;23.58;41.05
75936;BME280;64614;32.062;34.834;2022-12-22T09:32:11;100940.16;;;23.69;40.68
75936;BME280;64614;32.062;34.834;2022-12-22T09:34:37;100941.94;;;23.65;40.11
75936;BME280;64614;32.062;34.834;2022-12-22T09:37:03;100934.47;;;23.57;40.19
75936;BME280;64614;32.062;34.834;2022-12-22T09:39:30;100938.00;;;23.57;39.94
75936;BME280;64614;32.062;34.834;2022-12-22T09:41:56;100936.09;;;23.58;40.87
75936;BME280;64614;32.062;34.834;2022-12-22T09:44:26;100937.06;;;23.62;40.11
75936;BME280;64614;32.062;34.834;2022-12-22T09:46:58;100935.75;;;23.59;41.19
75936;BME280;64614;32.062;34.834;2022-12-22T09:49:25;100933.53;;;23.61;40.15
75936;BME280;64614;32.062;34.834;2022-12-22T09:57:53;100918.19;;;23.60;40.72
75936;BME280;64614;32.062;34.834;2022-12-22T10:00:22;100922.38;;;23.58;40.68
75936;BME280;64614;32.062;34.834;2022-12-22T10:08:11;100892.84;;;23.55;39.97
75936;BME280;64614;32.062;34.834;2022-12-22T10:10:37;100889.47;;;23.58;39.37
75936;BME280;64614;32.062;34.834;2022-12-22T10:13:04;100876.38;;;23.55;39.68
75936;BME280;64614;32.062;34.834;2022-12-22T10:15:38;100885.59;;;23.59;39.80
75936;BME280;64614;32.062;34.834;2022-12-22T10:20:35;100878.81;;;23.56;39.34
75936;BME280;64614;32.062;34.834;2022-12-22T10:23:25;100866.03;;;23.52;39.29
75936;BME280;64614;32.062;34.834;2022-12-22T10:28:30;100856.25;;;23.59;39.89
75936;BME280;64614;32.062;34.834;2022-12-22T10:33:39;100846.91;;;23.60;39.78
75936;BME280;64614;32.062;34.834;2022-12-22T10:36:05;100844.47;;;23.59;40.18
75936;BME280;64614;32.062;34.834;2022-12-22T10:38:33;100840.88;;;23.50;37.82
75936;BME280;64614;32.062;34.834;2022-12-22T10:43:39;100828.41;;;23.43;36.89
75936;BME280;64614;32.062;34.834;2022-12-22T10:46:10;100826.19;;;23.45;37.60
75936;BME280;64614;32.062;34.834;2022-12-22T10:48:37;100829.72;;;23.46;38.47
75936;BME280;64614;32.062;34.834;2022-12-22T10:51:09;100819.75;;;23.50;38.18
75936;BME280;64614;32.062;34.834;2022-12-22T10:53:42;100821.38;;;23.51;38.89
75936;BME280;64614;32.062;34.834;2022-12-22T10:56:37;100811.88;;;23.49;40.16
75936;BME280;64614;32.062;34.834;2022-12-22T11:01:31;100810.78;;;23.58;40.86
75936;BME280;64614;32.062;34.834;2022-12-22T11:03:57;100814.63;;;23.57;41.00
75936;BME280;64614;32.062;34.834;2022-12-22T11:06:23;100803.22;;;23.64;40.90
75936;BME280;64614;32.062;34.834;2022-12-22T11:08:49;100794.84;;;23.69;41.22
75936;BME280;64614;32.062;34.834;2022-12-22T11:11:33;100795.69;;;23.70;41.56
75936;BME280;64614;32.062;34.834;2022-12-22T11:15:12;100791.00;;;23.70;41.50
75936;BME280;64614;32.062;34.834;2022-12-22T11:17:21;100791.00;;;23.70;41.58
75936;BME280;64614;32.062;34.834;2022-12-22T11:25:17;100777.78;;;23.72;41.92
75936;BME280;64614;32.062;34.834;2022-12-22T11:36:34;100768.72;;;23.72;42.50
75936;BME280;64614;32.062;34.834;2022-12-22T11:39:11;100778.91;;;23.71;42.30
75936;BME280;64614;32.062;34.834;2022-12-22T11:49:59;100763.44;;;23.75;42.74
75936;BME280;64614;32.062;34.834;2022-12-22T11:58:02;100759.09;;;23.74;42.82
75936;BME280;64614;32.062;34.834;2022-12-22T12:00:39;100756.34;;;23.74;43.15
75936;BME280;64614;32.062;34.834;2022-12-22T12:06:14;100763.06;;;23.59;40.77
75936;BME280;64614;32.062;34.834;2022-12-22T12:20:41;100745.34;;;23.34;38.50
75936;BME280;64614;32.062;34.834;2022-12-22T12:23:31;100757.81;;;23.17;38.70
75936;BME280;64614;32.062;34.834;2022-12-22T12:26:09;100755.16;;;23.26;39.08
75936;BME280;64614;32.062;34.834;2022-12-22T12:31:16;100752.66;;;22.71;38.78
75936;BME280;64614;32.062;34.834;2022-12-22T12:33:53;100764.06;;;22.87;39.02
75936;BME280;64614;32.062;34.834;2022-12-22T12:39:54;100760.13;;;23.24;38.87
75936;BME280;64614;32.062;34.834;2022-12-22T12:44:57;100754.16;;;23.54;40.58
75936;BME280;64614;32.062;34.834;2022-12-22T12:47:29;100740.78;;;23.52;41.24
75936;BME280;64614;32.062;34.834;2022-12-22T12:50:00;100737.09;;;23.57;41.84
75936;BME280;64614;32.062;34.834;2022-12-22T12:57:47;100747.28;;;23.65;42.56
75936;BME280;64614;32.062;34.834;2022-12-22T13:03:09;100745.00;;;23.67;42.89
75936;BME280;64614;32.062;34.834;2022-12-22T13:05:56;100748.75;;;23.71;42.24
75936;BME280;64614;32.062;34.834;2022-12-22T13:08:23;100742.94;;;23.73;42.65
75936;BME280;64614;32.062;34.834;2022-12-22T13:23:35;100737.28;;;23.69;43.19
75936;BME280;64614;32.062;34.834;2022-12-22T13:26:13;100731.78;;;23.69;42.99
75936;BME280;64614;32.062;34.834;2022-12-22T13:28:41;100743.59;;;23.70;42.90
75936;BME280;64614;32.062;34.834;2022-12-22T13:37:25;100740.00;;;23.69;42.83
75936;BME280;64614;32.062;34.834;2022-12-22T13:40:04;100742.63;;;23.74;42.68
75936;BME280;64614;32.062;34.834;2022-12-22T13:42:30;100742.75;;;23.69;42.43
75936;BME280;64614;32.062;34.834;2022-12-22T13:44:59;100742.47;;;23.71;42.84
75936;BME280;64614;32.062;34.834;2022-12-22T13:47:28;100747.28;;;23.74;42.66
75936;BME280;64614;32.062;34.834;2022-12-22T13:49:55;100731.78;;;23.69;43.19
75936;BME280;64614;32.062;34.834;2022-12-22T13:52:20;100738.09;;;23.70;42.83
75936;BME280;64614;32.062;34.834;2022-12-22T13:54:47;100744.38;;;23.70;43.36
75936;BME280;64614;32.062;34.834;2022-12-22T13:57:17;100736.44;;;23.60;43.47
75936;BME280;64614;32.062;34.834;2022-12-22T13:59:51;100726.47;;;23.64;43.37
75936;BME280;64614;32.062;34.834;2022-12-22T14:02:19;100724.00;;;23.62;43.52
75936;BME280;64614;32.062;34.834;2022-12-22T14:07:28;100735.97;;;23.58;42.76
75936;BME280;64614;32.062;34.834;2022-12-22T14:09:56;100732.41;;;23.57;42.94
75936;BME280;64614;32.062;34.834;2022-12-22T14:12:25;100737.88;;;23.57;43.08
75936;BME280;64614;32.062;34.834;2022-12-22T14:14:56;100730.94;;;23.60;43.39
75936;BME280;64614;32.062;34.834;2022-12-22T14:19:57;100732.22;;;23.54;43.34
75936;BME280;64614;32.062;34.834;2022-12-22T14:22:32;100733.03;;;23.54;43.32
75936;BME280;64614;32.062;34.834;2022-12-22T14:25:03;100729.47;;;23.54;43.21
75936;BME280;64614;32.062;34.834;2022-12-22T14:27:51;100734.34;;;23.57;43.30
75936;BME280;64614;32.062;34.834;2022-12-22T14:30:20;100737.69;;;23.54;43.46
75936;BME280;64614;32.062;34.834;2022-12-22T14:32:48;100731.72;;;23.52;43.19
75936;BME280;64614;32.062;34.834;2022-12-22T14:37:52;100750.91;;;23.52;43.76
75936;BME280;64614;32.062;34.834;2022-12-22T14:42:59;100748.50;;;23.50;44.09
75936;BME280;64614;32.062;34.834;2022-12-22T14:45:25;100744.47;;;23.47;44.25
75936;BME280;64614;32.062;34.834;2022-12-22T14:47:52;100751.06;;;23.46;43.84
75936;BME280;64614;32.062;34.834;2022-12-22T14:50:20;100749.13;;;23.47;43.76
75936;BME280;64614;32.062;34.834;2022-12-22T14:52:50;100756.84;;;23.45;43.60
75936;BME280;64614;32.062;34.834;2022-12-22T14:55:39;100756.84;;;23.45;43.95
75936;BME280;64614;32.062;34.834;2022-12-22T14:58:09;100749.44;;;23.45;43.48
75936;BME280;64614;32.062;34.834;2022-12-22T15:00:48;100752.31;;;23.40;43.38
75936;BME280;64614;32.062;34.834;2022-12-22T15:03:44;100745.22;;;23.39;43.55
75936;BME280;64614;32.062;34.834;2022-12-22T15:11:45;100752.63;;;23.39;43.60
75936;BME280;64614;32.062;34.834;2022-12-22T15:14:16;100754.56;;;23.38;43.76
75936;BME280;64614;32.062;34.834;2022-12-22T15:16:44;100751.31;;;23.36;43.59
75936;BME280;64614;32.062;34.834;2022-12-22T15:19:13;100755.69;;;23.37;43.75
75936;BME280;64614;32.062;34.834;2022-12-22T15:21:41;100754.69;;;23.33;44.10
75936;BME280;64614;32.062;34.834;2022-12-22T15:24:14;100770.00;;;23.34;44.51
75936;BME280;64614;32.062;34.834;2022-12-22T15:26:41;100765.66;;;23.33;43.87
75936;BME280;64614;32.062;34.834;2022-12-22T15:29:07;100775.81;;;23.33;44.13
75936;BME280;64614;32.062;34.834;2022-12-22T15:31:43;100770.16;;;23.29;44.04
75936;BME280;64614;32.062;34.834;2022-12-22T15:34:24;100770.16;;;23.29;43.51
75936;BME280;64614;32.062;34.834;2022-12-22T15:50:06;100776.25;;;23.26;44.09